Terminal Aerodrome Forecast
Issued by NWS

Home | Current Version | Previous Version | Text Only | Print | Product List | Glossary On
Versions: 1 2 3 4 5 6 7 8 9 10 11 12 13
000
FTUS46 KOTX 191736
TAFSFF
TAF
KSFF 191736Z 1918/2018 21006KT P6SM VCSH BKN060 OVC070
     FM192100 22007KT P6SM -RA OVC050
     FM200300 22006G12KT P6SM -RA SCT025 OVC050
     FM200900 22011G21KT P6SM VCSH SCT030 OVC050
     FM201200 23012G29KT P6SM VCSH SCT035 OVC050=

USA.gov is the U.S. government's official web portal to all federal, state and local government web resources and services.